Time;durP1;ratioP1;P1;durP2;ratioP2;P2;SDS_P1;SDS_P2;PMS_P1;PMS_P2;Temp;Humidity;BMP_temperature;BMP_pressure;BME280_temperature;BME280_humidity;BME280_pressure;Samples;Min_cycle;Max_cycle;Signal;HPM_P1;HPM_P2
2022/08/15 00:03:30;;;;;;;9.07;7.00;;;;;;;19.39;71.09;100102.91;10427218;28;20044;-77
2022/08/15 00:08:32;;;;;;;11.70;9.05;;;;;;;19.30;73.41;100109.06;10411031;28;20024;-77
2022/08/15 00:13:32;;;;;;;8.52;7.38;;;;;;;19.30;73.56;100110.84;10428527;28;20037;-77
2022/08/15 00:18:33;;;;;;;8.73;7.30;;;;;;;19.31;73.16;100113.50;10410087;28;20068;-77
2022/08/15 00:23:34;;;;;;;10.10;8.38;;;;;;;19.38;73.35;100122.34;10384998;28;20034;-77
2022/08/15 00:28:34;;;;;;;10.45;7.32;;;;;;;19.42;70.68;100116.16;10392017;28;20507;-77
2022/08/15 00:33:35;;;;;;;9.30;7.97;;;;;;;19.72;68.84;100118.75;10385381;28;20414;-77
2022/08/15 00:38:35;;;;;;;9.63;8.18;;;;;;;19.59;69.97;100124.09;10402799;28;20095;-78
2022/08/15 00:43:37;;;;;;;9.73;6.85;;;;;;;19.62;66.54;100120.56;10426002;28;20059;-78
2022/08/15 00:48:43;;;;;;;8.38;6.78;;;;;;;19.65;65.83;100132.03;10410214;28;20488;-77
2022/08/15 00:53:46;;;;;;;6.97;5.60;;;;;;;19.77;63.10;100144.41;10424940;28;20048;-78
2022/08/15 00:58:47;;;;;;;7.07;5.72;;;;;;;19.73;64.14;100139.09;10409121;28;20032;-78
2022/08/15 01:03:48;;;;;;;8.93;6.40;;;;;;;19.71;63.51;100135.56;10384127;28;20477;-78
2022/08/15 01:08:48;;;;;;;8.75;6.60;;;;;;;19.63;65.45;100136.47;10368236;28;20050;-77
2022/08/15 01:13:49;;;;;;;7.65;4.80;;;;;;;19.59;64.21;100144.44;10400592;28;20053;-77
2022/08/15 01:18:51;;;;;;;10.45;5.20;;;;;;;19.79;62.79;100137.34;10425144;28;20037;-78
2022/08/15 01:24:15;;;;;;;7.33;3.63;;;;;;;19.93;60.04;100136.47;10368417;28;20120;-78
2022/08/15 01:29:17;;;;;;;5.65;4.25;;;;;;;20.07;60.57;100133.75;10386262;28;20041;-78
2022/08/15 01:34:17;;;;;;;9.13;4.63;;;;;;;20.20;58.75;100137.25;10422691;28;20413;-78
2022/08/15 01:39:31;;;;;;;9.55;4.00;;;;;;;20.08;58.74;100141.72;10406287;28;20119;-78
2022/08/15 01:44:46;;;;;;;8.75;4.03;;;;;;;19.91;60.00;100138.22;10424695;28;20593;-77
2022/08/15 01:49:58;;;;;;;7.60;4.22;;;;;;;19.62;62.17;100134.69;10391313;28;20025;-77
2022/08/15 01:54:59;;;;;;;7.27;4.47;;;;;;;19.67;60.54;100119.66;10407751;28;20040;-77
2022/08/15 01:59:59;;;;;;;7.78;4.28;;;;;;;19.72;61.41;100122.31;10423243;28;20276;-76
2022/08/15 02:05:00;;;;;;;18.60;5.95;;;;;;;19.77;61.18;100119.63;10406711;28;20029;-77
2022/08/15 02:10:00;;;;;;;10.43;4.63;;;;;;;19.87;59.61;100118.72;10406138;28;20033;-76
2022/08/15 02:15:04;;;;;;;6.22;3.45;;;;;;;19.97;59.67;100126.69;10423992;28;20117;-76
2022/08/15 02:20:05;;;;;;;6.22;3.65;;;;;;;19.85;60.80;100130.25;10407503;28;20094;-77
2022/08/15 02:25:06;;;;;;;6.47;4.35;;;;;;;19.69;61.67;100135.59;10421785;28;20041;-77
2022/08/15 02:30:13;;;;;;;6.37;3.67;;;;;;;19.53;62.09;100137.34;10406491;28;20037;-76
2022/08/15 02:35:16;;;;;;;6.18;4.03;;;;;;;19.33;63.15;100126.78;10407400;28;20272;-76
2022/08/15 02:40:16;;;;;;;8.65;4.20;;;;;;;19.25;64.13;100142.66;10422450;28;20040;-77
2022/08/15 02:45:17;;;;;;;10.07;4.40;;;;;;;19.16;64.56;100150.63;10408707;28;20033;-77
2022/08/15 02:50:19;;;;;;;11.50;4.07;;;;;;;19.13;64.10;100147.97;10429993;28;20037;-77
2022/08/15 02:55:20;;;;;;;7.65;5.07;;;;;;;19.18;65.05;100152.41;10430897;28;20887;-76
2022/08/15 03:00:21;;;;;;;8.90;4.32;;;;;;;19.28;63.77;100158.59;10429537;28;20041;-77
2022/08/15 03:05:23;;;;;;;10.20;3.65;;;;;;;19.27;63.83;100158.59;10413574;28;20549;-77
2022/08/15 03:10:24;;;;;;;5.00;3.25;;;;;;;19.17;64.79;100155.03;10429822;28;20496;-78
2022/08/15 03:15:30;;;;;;;7.25;4.22;;;;;;;18.96;65.46;100147.94;10429901;28;20041;-77
2022/08/15 03:20:30;;;;;;;8.98;4.10;;;;;;;18.89;65.95;100157.63;10428706;28;20060;-77
2022/08/15 03:25:32;;;;;;;8.85;3.58;;;;;;;18.69;66.48;100149.63;10428965;28;20119;-76
2022/08/15 03:30:32;;;;;;;5.25;3.65;;;;;;;18.56;68.35;100143.41;10428556;28;20039;-76
2022/08/15 03:35:38;;;;;;;6.32;3.28;;;;;;;18.46;68.43;100138.06;10428400;28;20037;-76
2022/08/15 03:40:40;;;;;;;4.65;3.10;;;;;;;18.48;68.48;100140.75;10411939;28;20029;-75
2022/08/15 03:45:45;;;;;;;6.13;4.05;;;;;;;18.42;69.49;100133.63;10410791;28;20496;-77
2022/08/15 03:50:46;;;;;;;8.95;3.88;;;;;;;18.40;69.47;100129.22;10396416;28;20038;-77
2022/08/15 03:55:47;;;;;;;9.70;3.63;;;;;;;18.33;69.38;100129.22;10386025;28;20046;-74
2022/08/15 04:00:48;;;;;;;46.22;29.88;;;;;;;18.31;70.00;100135.38;10384567;28;20037;-74
2022/08/15 04:05:53;;;;;;;7.60;5.00;;;;;;;18.36;70.65;100130.09;10359103;28;20474;-78
2022/08/15 04:10:53;;;;;;;5.38;3.60;;;;;;;18.49;69.40;100135.44;10395338;28;20131;-75
2022/08/15 04:15:55;;;;;;;5.68;3.60;;;;;;;18.56;69.35;100139.00;10368689;28;20045;-76
2022/08/15 04:20:58;;;;;;;29.48;22.55;;;;;;;18.67;69.33;100138.16;10366358;28;20397;-77
2022/08/15 04:26:04;;;;;;;11.00;9.30;;;;;;;18.77;68.50;100138.16;10357686;28;20095;-77
2022/08/15 04:31:07;;;;;;;5.63;3.38;;;;;;;19.01;66.74;100154.16;10344815;28;20121;-77
2022/08/15 04:36:10;;;;;;;4.95;2.95;;;;;;;18.96;66.64;100153.22;10327923;28;20117;-77
2022/08/15 04:41:11;;;;;;;7.85;3.97;;;;;;;18.98;68.38;100162.97;10345691;28;20053;-77
2022/08/15 04:46:11;;;;;;;7.32;4.35;;;;;;;18.99;67.86;100161.22;10328897;28;20045;-77
2022/08/15 04:51:12;;;;;;;4.68;2.90;;;;;;;18.95;68.92;100173.53;10344358;28;20113;-77
2022/08/15 04:56:12;;;;;;;7.80;3.33;;;;;;;18.98;67.00;100173.59;10344357;28;20391;-78
2022/08/15 05:01:13;;;;;;;9.30;3.90;;;;;;;19.12;67.44;100181.59;10362735;28;20037;-78
2022/08/15 05:06:13;;;;;;;5.40;3.72;;;;;;;19.17;67.33;100186.88;10343890;28;20378;-78
2022/08/15 05:11:16;;;;;;;7.47;3.67;;;;;;;19.22;67.40;100180.72;10343300;28;20121;-77
2022/08/15 05:16:16;;;;;;;7.47;2.83;;;;;;;19.37;66.86;100186.91;10344758;28;20109;-77
2022/08/15 05:21:17;;;;;;;4.78;3.67;;;;;;;19.47;66.35;100179.81;10361102;28;20086;-77
2022/08/15 05:26:17;;;;;;;4.32;3.03;;;;;;;19.60;66.58;100183.38;10326915;28;20030;-78
2022/08/15 05:31:18;;;;;;;8.40;3.20;;;;;;;19.71;66.35;100176.28;10343116;28;20429;-80
2022/08/15 05:36:18;;;;;;;5.65;3.00;;;;;;;19.90;65.56;100195.75;10344077;28;20589;-77
2022/08/15 05:41:43;;;;;;;5.15;3.22;;;;;;;19.95;66.81;100195.75;10343155;28;20056;-77
2022/08/15 05:46:59;;;;;;;7.10;3.53;;;;;;;20.02;66.09;100197.50;10361937;28;20128;-78
2022/08/15 05:52:22;;;;;;;4.78;3.35;;;;;;;20.06;66.07;100203.69;10343078;28;20088;-78
2022/08/15 05:57:22;;;;;;;7.15;4.05;;;;;;;20.13;66.04;100181.53;10344069;28;20076;-79
2022/08/15 06:02:36;;;;;;;8.85;3.00;;;;;;;20.21;65.50;100187.72;10343242;28;20044;-78
2022/08/15 06:07:38;;;;;;;6.78;3.45;;;;;;;20.21;66.32;100198.34;10341786;28;20376;-77
2022/08/15 06:12:42;;;;;;;5.78;3.13;;;;;;;20.24;66.29;100197.47;10342522;28;20034;-78
2022/08/15 06:17:45;;;;;;;6.90;4.13;;;;;;;20.36;66.04;100204.50;10366884;28;20471;-78
2022/08/15 06:23:05;;;;;;;4.72;3.20;;;;;;;20.57;65.57;100210.63;10390481;28;20060;-77
2022/08/15 06:28:32;;;;;;;5.50;3.55;;;;;;;20.83;64.72;100195.47;10414215;28;20033;-77
2022/08/15 06:33:59;;;;;;;6.05;3.38;;;;;;;21.06;64.35;100190.91;10434045;28;20493;-77
2022/08/15 06:39:06;;;;;;;7.50;3.75;;;;;;;21.25;63.68;100197.88;10414813;28;20056;-79
2022/08/15 06:44:07;;;;;;;4.97;3.38;;;;;;;21.66;63.25;100193.13;10409959;28;20037;-76
2022/08/15 06:49:09;;;;;;;6.50;4.72;;;;;;;22.11;62.14;100189.16;10427609;28;20104;-78
2022/08/15 06:54:11;;;;;;;;;;;;;;;22.52;61.29;100182.47;10429480;28;20033;-77
2022/08/15 06:59:21;;;;;;;;;;;;;;;22.80;60.43;100181.25;10429476;28;19925;-77
2022/08/15 07:04:44;;;;;;;5.65;3.53;;;;;;;22.81;60.80;100189.22;10446824;28;19924;-77
2022/08/15 07:09:47;;;;;;;5.97;3.63;;;;;;;23.13;59.22;100187.88;10416240;28;20441;-77
2022/08/15 07:15:02;;;;;;;9.07;3.55;;;;;;;23.98;57.49;100198.06;10448432;28;20033;-77
2022/08/15 07:20:05;;;;;;;6.82;3.53;;;;;;;25.05;53.89;100194.13;10429027;28;20045;-77
2022/08/15 07:25:13;;;;;;;8.13;3.70;;;;;;;25.24;54.06;100203.53;10406352;28;20099;-77
2022/08/15 07:30:20;;;;;;;3.95;2.95;;;;;;;23.95;56.96;100204.34;10411266;28;20461;-77
2022/08/15 07:35:20;;;;;;;7.55;3.42;;;;;;;23.03;59.96;100204.91;10409890;28;20044;-77
2022/08/15 07:40:28;;;;;;;5.10;3.43;;;;;;;22.38;62.20;100206.63;10445801;28;20520;-77
2022/08/15 07:45:31;;;;;;;12.48;3.63;;;;;;;22.03;62.39;100207.00;10411908;28;20041;-77
2022/08/15 07:50:38;;;;;;;7.70;4.18;;;;;;;21.78;63.90;100210.78;10396240;28;20049;-77
2022/08/15 07:55:39;;;;;;;14.90;4.75;;;;;;;21.57;64.44;100206.50;10387738;28;20048;-77
2022/08/15 08:00:40;;;;;;;9.90;4.70;;;;;;;21.44;64.94;100203.06;10386041;28;20044;-76
2022/08/15 08:05:50;;;;;;;8.23;3.80;;;;;;;21.39;65.36;100211.06;10371740;28;20072;-77
2022/08/15 08:11:17;;;;;;;7.03;4.97;;;;;;;21.24;68.66;100213.84;10387109;28;20037;-77
2022/08/15 08:16:28;;;;;;;8.05;4.47;;;;;;;21.03;69.63;100221.06;10425449;28;20041;-77
2022/08/15 08:21:45;;;;;;;22.65;5.43;;;;;;;21.08;69.58;100213.06;10412673;28;20041;-76
2022/08/15 08:26:46;;;;;;;8.77;4.32;;;;;;;21.20;69.36;100209.44;10412470;28;20025;-76
2022/08/15 08:32:04;;;;;;;5.50;3.80;;;;;;;21.29;68.29;100217.34;10444149;28;20037;-76
2022/08/15 08:37:15;;;;;;;6.72;3.75;;;;;;;21.40;68.37;100209.31;10412006;28;20047;-77
2022/08/15 08:42:18;;;;;;;9.07;5.43;;;;;;;21.77;67.54;100213.47;10409979;28;20485;-77
2022/08/15 08:47:28;;;;;;;9.65;5.00;;;;;;;22.28;67.33;100215.63;10444809;28;20481;-76
2022/08/15 08:52:52;;;;;;;7.35;4.68;;;;;;;22.91;64.21;100215.75;10408758;28;20414;-77
2022/08/15 08:58:15;;;;;;;9.75;5.53;;;;;;;22.95;63.61;100223.72;10371332;28;20066;-77
2022/08/15 09:03:34;;;;;;;6.45;4.07;;;;;;;22.88;62.71;100222.91;10384740;28;20029;-76
2022/08/15 09:08:51;;;;;;;7.47;4.40;;;;;;;22.59;64.11;100224.16;10351945;28;20056;-77
2022/08/15 09:13:52;;;;;;;6.95;4.95;;;;;;;22.66;63.46;100227.66;10390134;28;20037;-77
2022/08/15 09:18:55;;;;;;;6.77;4.77;;;;;;;22.69;63.81;100242.72;10418253;28;20610;-77
2022/08/15 09:23:56;;;;;;;7.32;4.28;;;;;;;22.53;63.68;100250.91;10421769;28;20447;-81
2022/08/15 09:29:18;;;;;;;9.98;6.60;;;;;;;22.41;64.78;100249.25;10424024;28;20040;-76
2022/08/15 09:34:32;;;;;;;14.07;5.18;;;;;;;22.55;64.71;100251.78;10441369;28;20123;-76
2022/08/15 09:39:38;;;;;;;11.20;5.80;;;;;;;22.58;64.04;100249.06;10407047;28;20043;-77
2022/08/15 09:45:04;;;;;;;11.60;4.90;;;;;;;22.55;64.32;100250.91;10440845;28;20500;-76
2022/08/15 09:50:23;;;;;;;6.50;4.30;;;;;;;22.47;64.41;100252.78;10440410;28;20037;-77
2022/08/15 09:55:46;;;;;;;6.47;4.22;;;;;;;22.30;66.25;100254.69;10398303;28;20042;-77
2022/08/15 10:00:58;;;;;;;8.95;4.13;;;;;;;22.26;66.35;100260.06;10369867;28;20061;-78
2022/08/15 10:06:06;;;;;;;7.57;4.87;;;;;;;22.61;64.70;100255.25;10383939;28;20047;-79
2022/08/15 10:11:11;;;;;;;7.47;4.68;;;;;;;22.96;64.42;100252.16;10384052;28;20079;-78
2022/08/15 10:16:40;;;;;;;8.35;4.13;;;;;;;23.47;61.82;100250.59;10383204;28;20044;-77
2022/08/15 10:21:42;;;;;;;8.48;4.18;;;;;;;23.78;61.00;100246.50;10400964;28;20065;-78
2022/08/15 10:26:43;;;;;;;12.50;5.15;;;;;;;23.96;59.48;100250.66;10382833;28;20393;-79
2022/08/15 10:31:52;;;;;;;9.00;5.40;;;;;;;24.00;59.17;100257.75;10399483;28;20033;-79
2022/08/15 10:37:16;;;;;;;9.07;5.68;;;;;;;24.22;59.23;100262.72;10399280;28;20037;-79
2022/08/15 10:42:54;;;;;;;7.60;4.65;;;;;;;24.63;58.67;100264.56;10384053;28;20033;-78
2022/08/15 10:48:15;;;;;;;8.25;4.53;;;;;;;25.28;56.65;100261.44;10398826;28;20069;-78
2022/08/15 10:53:40;;;;;;;8.35;4.75;;;;;;;25.87;55.62;100258.28;10440035;28;20068;-78
2022/08/15 10:58:40;;;;;;;5.53;4.18;;;;;;;26.02;53.68;100256.97;10389502;28;20037;-78
2022/08/15 11:03:47;;;;;;;7.10;3.83;;;;;;;26.07;56.24;100270.28;10406406;28;20036;-78
2022/08/15 11:08:50;;;;;;;10.00;5.45;;;;;;;25.78;55.48;100264.72;10448301;28;20036;-78
2022/08/15 11:13:56;;;;;;;10.27;5.15;;;;;;;25.33;56.48;100270.25;10448799;28;20182;-78
2022/08/15 11:18:58;;;;;;;14.25;5.32;;;;;;;24.97;56.55;100272.84;10389333;28;20128;-78
2022/08/15 11:24:01;;;;;;;;;;;;;;;25.09;57.65;100274.38;10372847;28;20041;-77
2022/08/15 11:29:20;;;;;;;8.93;5.30;;;;;;;26.38;54.01;100266.78;10389253;28;19917;-77
2022/08/15 11:34:37;;;;;;;8.13;5.53;;;;;;;26.60;52.98;100269.75;10372901;28;20045;-78
2022/08/15 11:39:42;;;;;;;7.10;5.10;;;;;;;25.59;55.57;100276.81;10405041;28;20477;-78
2022/08/15 11:44:59;;;;;;;5.22;4.38;;;;;;;25.30;55.92;100286.38;10371854;28;20041;-78
2022/08/15 11:50:05;;;;;;;8.32;4.55;;;;;;;25.33;55.41;100289.00;10373617;28;20033;-78
2022/08/15 11:55:17;;;;;;;14.50;4.97;;;;;;;25.10;55.68;100293.06;10387524;28;20033;-78
2022/08/15 12:00:30;;;;;;;8.13;4.72;;;;;;;24.89;56.31;100289.06;10388610;28;20044;-78
2022/08/15 12:05:35;;;;;;;8.88;5.45;;;;;;;24.89;56.99;100281.91;10371961;28;20351;-78
2022/08/15 12:10:39;;;;;;;11.55;5.47;;;;;;;24.90;56.20;100289.03;10387769;28;20044;-78
2022/08/15 12:15:41;;;;;;;7.20;5.22;;;;;;;25.04;56.39;100293.19;10370147;28;20033;-78
2022/08/15 12:20:46;;;;;;;;;;;;;;;25.14;56.41;100294.75;10368581;28;20049;-79
2022/08/15 12:25:54;;;;;;;9.80;4.63;;;;;;;25.13;54.90;100297.50;10444796;28;19920;-78
2022/08/15 12:31:11;;;;;;;7.57;4.30;;;;;;;25.46;55.56;100297.69;10384750;28;20041;-78
2022/08/15 12:36:11;;;;;;;9.02;6.32;;;;;;;25.89;53.49;100295.75;10403762;28;20037;-78
2022/08/15 12:41:12;;;;;;;8.37;4.47;;;;;;;25.79;53.82;100295.09;10417182;28;20505;-78
2022/08/15 12:46:12;;;;;;;6.50;5.30;;;;;;;26.00;53.58;100287.44;10423834;28;20036;-79
2022/08/15 12:51:14;;;;;;;9.50;4.90;;;;;;;26.55;52.52;100274.34;10407214;28;20057;-78
2022/08/15 12:56:17;;;;;;;6.63;4.03;;;;;;;27.10;50.77;100269.22;10408905;28;20044;-78
2022/08/15 13:01:18;;;;;;;8.70;4.75;;;;;;;26.63;50.27;100271.47;10425906;28;20044;-79
2022/08/15 13:06:23;;;;;;;5.90;4.60;;;;;;;25.89;52.95;100269.84;10407979;28;20040;-80
2022/08/15 13:11:25;;;;;;;20.73;6.03;;;;;;;25.64;53.65;100273.13;10385031;28;20052;-79
2022/08/15 13:16:25;;;;;;;8.30;5.93;;;;;;;26.00;53.61;100269.53;10366639;28;20037;-79
2022/08/15 13:26:45;;;;;;;9.05;4.97;;;;;;;29.04;48.38;100264.44;10400738;28;20041;-79
2022/08/15 13:31:46;;;;;;;7.50;4.93;;;;;;;30.75;41.70;100258.16;10383103;28;20033;-79
2022/08/15 13:36:48;;;;;;;9.50;5.68;;;;;;;31.24;40.02;100243.28;10366877;28;20041;-79
2022/08/15 13:41:48;;;;;;;7.05;4.75;;;;;;;29.65;43.42;100248.53;10367749;28;20051;-79
2022/08/15 13:46:51;;;;;;;8.07;5.07;;;;;;;28.51;46.50;100252.91;10350930;28;20048;-79
2022/08/15 13:51:53;;;;;;;13.90;4.22;;;;;;;28.90;44.79;100251.47;10383348;28;20473;-79
2022/08/15 13:56:53;;;;;;;;;;;;;;;28.25;45.26;100256.53;10367920;28;20033;-79
2022/08/15 14:01:54;;;;;;;8.03;5.03;;;;;;;27.19;50.08;100262.66;10382906;28;19917;-79
2022/08/15 14:06:54;;;;;;;7.33;4.80;;;;;;;26.73;50.41;100258.66;10366558;28;20069;-80
2022/08/15 14:11:55;;;;;;;8.90;4.47;;;;;;;26.45;51.46;100259.44;10400487;28;20030;-79
2022/08/15 14:16:56;;;;;;;10.07;5.30;;;;;;;26.23;50.61;100254.66;10367454;28;20112;-78
2022/08/15 14:21:56;;;;;;;9.00;4.47;;;;;;;26.21;52.17;100254.72;10382004;28;20191;-81
2022/08/15 14:26:57;;;;;;;16.23;5.93;;;;;;;26.12;50.98;100257.63;10400204;28;21118;-80
2022/08/15 14:31:57;;;;;;;5.77;4.47;;;;;;;25.94;52.16;100248.25;10366660;28;20041;-80
2022/08/15 14:36:58;;;;;;;8.13;6.27;;;;;;;25.77;51.20;100248.69;10364491;28;20115;-79
2022/08/15 14:41:59;;;;;;;10.10;5.67;;;;;;;25.79;50.79;100257.59;10386210;28;20026;-79
2022/08/15 14:47:00;;;;;;;5.65;4.40;;;;;;;25.50;53.61;100254.69;10406455;28;20038;-79
2022/08/15 14:52:01;;;;;;;6.65;5.28;;;;;;;25.56;52.72;100247.41;10392000;28;20034;-79
2022/08/15 14:57:05;;;;;;;9.32;6.03;;;;;;;25.47;53.28;100243.19;10389707;28;20042;-80
2022/08/15 15:02:07;;;;;;;6.75;4.32;;;;;;;25.48;54.03;100244.94;10373919;28;20049;-80
2022/08/15 15:07:08;;;;;;;7.32;5.05;;;;;;;25.63;53.35;100232.97;10357380;28;20051;-79
2022/08/15 15:12:09;;;;;;;6.10;4.75;;;;;;;25.69;53.10;100234.63;10362864;28;20073;-79
2022/08/15 15:17:10;;;;;;;7.80;4.75;;;;;;;25.98;51.36;100223.13;10402990;28;20037;-79
2022/08/15 15:22:10;;;;;;;8.63;5.17;;;;;;;26.60;50.46;100223.25;10404983;28;20474;-79
2022/08/15 15:27:11;;;;;;;8.43;4.47;;;;;;;26.92;49.28;100222.31;10406074;28;20041;-79
2022/08/15 15:32:11;;;;;;;6.40;4.47;;;;;;;26.86;49.52;100224.31;10404669;28;20108;-79
2022/08/15 15:37:12;;;;;;;8.27;5.33;;;;;;;26.72;51.34;100225.59;10406129;28;20041;-80
2022/08/15 15:42:12;;;;;;;6.53;4.60;;;;;;;26.21;49.86;100221.66;10405061;28;20053;-79
2022/08/15 15:47:13;;;;;;;7.33;5.87;;;;;;;26.09;50.18;100225.53;10387390;28;20061;-79
2022/08/15 15:52:15;;;;;;;6.20;4.60;;;;;;;25.89;52.10;100224.25;10378875;28;20057;-79
2022/08/15 15:57:16;;;;;;;6.63;4.72;;;;;;;25.82;51.83;100225.34;10403996;28;20052;-80
2022/08/15 16:02:20;;;;;;;11.00;5.32;;;;;;;25.71;52.89;100222.06;10387412;28;20038;-81
2022/08/15 16:07:21;;;;;;;12.38;6.88;;;;;;;25.71;52.41;100230.97;10382479;28;20409;-79
2022/08/15 16:12:21;;;;;;;7.57;5.53;;;;;;;25.61;53.20;100230.34;10387363;28;20069;-80
2022/08/15 16:17:27;;;;;;;7.97;5.63;;;;;;;25.61;52.88;100232.13;10403246;28;20133;-78
2022/08/15 16:22:33;;;;;;;7.90;4.95;;;;;;;25.51;53.62;100224.31;10402659;28;20065;-79
2022/08/15 16:27:42;;;;;;;8.82;4.50;;;;;;;25.54;53.29;100220.69;10386924;28;20431;-78
2022/08/15 16:32:57;;;;;;;9.07;7.82;;;;;;;25.27;53.29;100217.72;10426198;28;20820;-78
2022/08/15 16:38:06;;;;;;;6.53;5.88;;;;;;;24.82;55.22;100218.72;10393920;28;20044;-78
2022/08/15 16:43:16;;;;;;;11.43;7.95;;;;;;;24.35;55.97;100221.47;10379721;28;20033;-76
2022/08/15 16:48:25;;;;;;;9.25;4.93;;;;;;;24.12;56.28;100229.91;10391259;28;20551;-78
2022/08/15 16:53:50;;;;;;;6.93;4.88;;;;;;;23.82;56.84;100226.84;10377249;28;20045;-78
2022/08/15 16:59:10;;;;;;;10.15;4.78;;;;;;;23.76;57.82;100235.88;10438245;28;20441;-77
2022/08/15 17:04:19;;;;;;;8.65;5.10;;;;;;;23.68;57.28;100227.97;10425743;28;20051;-78
2022/08/15 17:10:01;;;;;;;16.70;13.80;;;;;;;23.48;58.42;100228.31;10442895;28;20036;-79
2022/08/15 17:15:22;;;;;;;14.82;6.43;;;;;;;23.30;59.36;100221.47;10345411;28;20094;-80
2022/08/15 17:20:29;;;;;;;8.32;5.00;;;;;;;23.16;59.84;100222.50;10361295;28;20050;-78
2022/08/15 17:25:32;;;;;;;5.70;4.10;;;;;;;23.02;61.18;100225.41;10407338;28;20098;-78
2022/08/15 17:30:38;;;;;;;6.60;4.38;;;;;;;22.80;62.26;100238.13;10424894;28;20118;-78
2022/08/15 17:35:39;;;;;;;7.72;4.60;;;;;;;22.68;62.15;100238.28;10382508;28;20422;-79
2022/08/15 17:40:47;;;;;;;16.17;13.38;;;;;;;22.62;61.28;100236.59;10380280;28;20037;-78
2022/08/15 17:45:47;;;;;;;5.82;4.28;;;;;;;22.54;60.55;100231.34;10353523;28;20037;-78
2022/08/15 17:50:49;;;;;;;6.40;3.47;;;;;;;22.47;60.19;100236.78;10366177;28;20112;-80
2022/08/15 17:56:02;;;;;;;7.38;4.72;;;;;;;22.29;65.00;100246.72;10350166;28;20505;-78
2022/08/15 18:01:03;;;;;;;5.45;4.22;;;;;;;21.95;65.20;100237.25;10383362;28;20466;-79
2022/08/15 18:06:04;;;;;;;9.32;6.25;;;;;;;21.47;67.60;100244.72;10398121;28;20116;-79
2022/08/15 18:11:05;;;;;;;173.68;142.18;;;;;;;20.96;69.67;100257.47;10399529;28;20382;-79
2022/08/15 18:16:08;;;;;;;25.15;16.63;;;;;;;20.69;71.69;100274.38;10397938;28;20049;-79
2022/08/15 18:21:13;;;;;;;10.60;6.85;;;;;;;20.38;72.96;100278.03;10398738;28;20042;-78
2022/08/15 18:26:33;;;;;;;7.00;4.50;;;;;;;20.27;73.76;100284.22;10423446;28;20029;-78
2022/08/15 18:31:39;;;;;;;9.02;5.97;;;;;;;20.04;74.30;100283.38;10399732;28;20056;-80
2022/08/15 18:36:53;;;;;;;8.88;5.15;;;;;;;19.86;75.85;100292.19;10382336;28;20088;-81
2022/08/15 18:41:54;;;;;;;9.55;5.38;;;;;;;19.75;76.27;100300.16;10404045;28;20511;-79
2022/08/15 18:46:57;;;;;;;7.97;5.50;;;;;;;19.66;77.15;100302.81;10381054;28;20535;-80
2022/08/15 18:52:33;;;;;;;8.38;4.95;;;;;;;19.57;77.05;100308.09;10396220;28;20034;-80
2022/08/15 18:57:40;;;;;;;7.78;5.78;;;;;;;19.48;76.68;100309.88;10388735;28;20041;-80
2022/08/15 19:02:44;;;;;;;6.72;4.72;;;;;;;19.39;77.42;100314.25;10382274;28;20390;-80
2022/08/15 19:07:50;;;;;;;8.40;4.90;;;;;;;19.36;78.69;100323.97;10397966;28;20136;-79
2022/08/15 19:12:52;;;;;;;6.00;4.93;;;;;;;19.29;78.53;100330.16;10381308;28;20512;-80
2022/08/15 19:18:02;;;;;;;7.93;5.22;;;;;;;19.26;78.65;100337.22;10385071;28;20462;-80
2022/08/15 19:23:03;;;;;;;7.20;4.97;;;;;;;19.20;78.57;100341.63;10382161;28;20037;-81
2022/08/15 19:28:13;;;;;;;10.07;5.53;;;;;;;19.17;78.60;100346.91;10402956;28;20080;-80
2022/08/15 19:33:37;;;;;;;8.23;5.10;;;;;;;19.09;79.33;100353.97;10428713;28;20041;-80
2022/08/15 19:38:50;;;;;;;7.13;5.75;;;;;;;19.03;79.87;100354.78;10378841;28;20441;-79
2022/08/15 19:44:19;;;;;;;6.53;5.18;;;;;;;18.98;81.48;100361.84;10364282;28;20464;-79
2022/08/15 19:54:59;;;;;;;8.70;6.40;;;;;;;19.01;80.91;100369.81;10350986;28;20133;-78
2022/08/15 20:00:13;;;;;;;11.25;5.00;;;;;;;18.98;81.00;100358.31;10311382;28;20122;-78
2022/08/15 20:05:40;;;;;;;8.13;6.63;;;;;;;18.95;81.16;100361.78;10322264;28;20506;-78
2022/08/15 20:10:51;;;;;;;6.00;5.18;;;;;;;18.96;80.91;100360.03;10322496;28;20085;-77
2022/08/15 20:16:42;;;;;;;9.38;5.97;;;;;;;18.91;81.03;100365.31;10299190;28;20063;-78
2022/08/15 20:22:16;;;;;;;8.30;5.60;;;;;;;18.84;81.67;100372.34;10250365;28;20408;-77
2022/08/15 20:27:19;;;;;;;16.75;8.52;;;;;;;18.73;83.78;100368.75;10301437;28;20573;-79
2022/08/15 20:32:35;;;;;;;10.68;5.78;;;;;;;18.49;85.39;100367.72;10303102;28;20060;-77
2022/08/15 20:37:38;;;;;;;7.95;6.63;;;;;;;18.30;87.91;100374.63;10341336;28;20038;-79
2022/08/15 20:43:06;;;;;;;22.58;16.90;;;;;;;18.12;91.14;100372.72;10381594;28;20041;-79
2022/08/15 20:48:23;;;;;;;10.18;7.85;;;;;;;18.00;94.12;100374.38;10413055;28;20128;-79
2022/08/15 20:53:24;;;;;;;10.75;9.00;;;;;;;17.93;96.88;100383.13;10392295;28;20037;-79
2022/08/15 20:58:34;;;;;;;9.15;7.57;;;;;;;17.90;97.21;100383.09;10426472;28;20126;-79
2022/08/15 21:03:34;;;;;;;11.13;8.27;;;;;;;17.86;99.53;100384.78;10443973;28;20048;-80
2022/08/15 21:09:07;;;;;;;12.90;9.82;;;;;;;17.81;99.97;100397.09;10425887;28;20554;-80
2022/08/15 21:14:31;;;;;;;11.68;9.65;;;;;;;17.82;100.00;100400.66;10380152;28;20406;-81
2022/08/15 21:19:41;;;;;;;11.20;10.10;;;;;;;17.81;100.00;100406.81;10423131;28;20036;-80
2022/08/15 21:24:41;;;;;;;11.30;8.02;;;;;;;17.73;100.00;100406.72;10424431;28;20032;-80
2022/08/15 21:29:42;;;;;;;16.33;11.15;;;;;;;17.66;100.00;100404.88;10408415;28;20037;-80
2022/08/15 21:35:15;;;;;;;10.85;9.30;;;;;;;17.64;100.00;100411.91;10408132;28;20039;-80
2022/08/15 21:40:37;;;;;;;10.40;9.02;;;;;;;17.57;100.00;100403.03;10384004;28;20036;-79
2022/08/15 21:45:43;;;;;;;17.48;10.77;;;;;;;17.47;100.00;100409.94;10402768;28;20497;-79
2022/08/15 21:50:44;;;;;;;12.18;10.88;;;;;;;17.40;100.00;100416.03;10383648;28;20585;-78
2022/08/15 21:55:45;;;;;;;15.05;11.00;;;;;;;17.32;100.00;100419.47;10384513;28;20095;-79
2022/08/15 22:00:46;;;;;;;15.27;11.15;;;;;;;17.27;100.00;100425.59;10359060;28;20116;-79
2022/08/15 22:05:49;;;;;;;16.60;12.35;;;;;;;17.21;100.00;100422.84;10375563;28;20042;-78
2022/08/15 22:10:53;;;;;;;18.42;11.82;;;;;;;17.15;100.00;100421.91;10358973;28;20038;-79
2022/08/15 22:15:53;;;;;;;13.15;11.30;;;;;;;17.14;100.00;100420.13;10343525;28;20113;-79
2022/08/15 22:20:54;;;;;;;16.08;12.95;;;;;;;17.14;100.00;100425.44;10369136;28;20112;-79
2022/08/15 22:25:55;;;;;;;15.73;12.05;;;;;;;17.14;100.00;100428.06;10366808;28;20037;-79
2022/08/15 22:30:56;;;;;;;14.73;12.27;;;;;;;17.11;100.00;100416.53;10377118;28;20060;-80
2022/08/15 22:35:57;;;;;;;15.95;13.05;;;;;;;17.09;100.00;100434.13;10399881;28;20041;-78
2022/08/15 22:40:58;;;;;;;18.88;12.95;;;;;;;17.09;100.00;100429.75;10339740;28;20045;-79
2022/08/15 22:46:00;;;;;;;16.48;14.02;;;;;;;17.05;100.00;100429.69;10342556;28;20057;-80
2022/08/15 22:51:04;;;;;;;18.13;12.90;;;;;;;16.99;100.00;100428.72;10385086;28;20492;-79
2022/08/15 22:56:04;;;;;;;15.60;11.77;;;;;;;16.92;100.00;100437.41;10357873;28;20042;-79
2022/08/15 23:01:05;;;;;;;17.23;12.75;;;;;;;16.84;100.00;100439.03;10401041;28;20046;-79
2022/08/15 23:06:08;;;;;;;16.13;12.88;;;;;;;16.78;100.00;100433.66;10391323;28;20478;-79
2022/08/15 23:11:14;;;;;;;16.40;13.45;;;;;;;16.80;100.00;100424.91;10365073;28;20069;-78
2022/08/15 23:16:21;;;;;;;18.88;13.40;;;;;;;16.87;100.00;100424.13;10349339;28;20042;-79
2022/08/15 23:21:22;;;;;;;19.42;12.25;;;;;;;16.91;100.00;100416.25;10381262;28;20501;-79
2022/08/15 23:26:24;;;;;;;15.40;11.27;;;;;;;16.95;100.00;100411.00;10390206;28;20040;-79
2022/08/15 23:31:30;;;;;;;15.80;10.88;;;;;;;16.96;100.00;100409.28;10405754;28;20041;-79
2022/08/15 23:36:40;;;;;;;16.83;12.68;;;;;;;16.98;100.00;100405.81;10406034;28;20045;-79